CheckWX is a tool to help pilots better visualize weather data.  It is not intended as a substitute for an official pre-flight weather briefing.

07:41:24 UTC

KHAF METAR
Half Moon Bay Airport
Half Moon Bay, California, USA
Current

6 mins ago

KHAF 060735Z AUTO 16016G20KT 10SM OVC029 14/10 A3003 RMK AO2
Observed
Dec-6 @ 07:35 UTC
Wind
  • 160° at 16 KTS
  • Gusting to 20 KTS
Visibility
10 SM
Flight Rules
MVFR
Cloud Levels
  • Overcast at 2,900' AGL
Temperature
14°C / 57°F
Dewpoint
10°C / 50°F
Humidity
77%
Altimeter
30.03" Hg
Pressure
1016.92 hPa
Previous

26 mins ago

KHAF 060715Z AUTO 16012KT 10SM OVC031 14/10 A3003 RMK AO2
Observed
Dec-6 @ 07:15 UTC
Wind
  • 160° at 12 KTS
Visibility
10 SM
Flight Rules
VFR
Cloud Levels
  • Overcast at 3,100' AGL
Temperature
14°C / 57°F
Dewpoint
10°C / 50°F
Humidity
77%
Altimeter
30.03" Hg
Pressure
1016.92 hPa
Previous

41 mins ago

KHAF 060700Z AUTO 17012KT 10SM OVC031 14/10 A3004 RMK AO2
Observed
Dec-6 @ 07:00 UTC
Wind
  • 170° at 12 KTS
Visibility
10 SM
Flight Rules
VFR
Cloud Levels
  • Overcast at 3,100' AGL
Temperature
14°C / 57°F
Dewpoint
10°C / 50°F
Humidity
77%
Altimeter
30.04" Hg
Pressure
1017.32 hPa